Time;durP1;ratioP1;P1;durP2;ratioP2;P2;SDS_P1;SDS_P2;PMS_P1;PMS_P2;Temp;Humidity;BMP_temperature;BMP_pressure;BME280_temperature;BME280_humidity;BME280_pressure;Samples;Min_cycle;Max_cycle;Signal;HPM_P1;HPM_P2
2022/03/30 00:00:26;;;;;;;29.13;17.88;;;;;;;13.92;39.80;99073.47;5097805;28;20075;-83
2022/03/30 00:02:55;;;;;;;30.15;17.33;;;;;;;13.95;39.83;99066.00;5116364;28;20073;-83
2022/03/30 00:05:23;;;;;;;33.30;17.45;;;;;;;13.82;39.83;99069.97;5116028;28;20035;-82
2022/03/30 00:07:59;;;;;;;34.92;17.88;;;;;;;13.63;40.64;99074.31;5116395;28;20043;-82
2022/03/30 00:10:27;;;;;;;32.53;17.70;;;;;;;13.54;41.07;99066.28;5115668;28;20052;-82
2022/03/30 00:12:56;;;;;;;29.92;17.67;;;;;;;13.45;41.12;99067.97;5115846;28;20039;-85
2022/03/30 00:15:25;;;;;;;29.00;17.38;;;;;;;13.32;41.47;99064.72;5115565;28;20044;-85
2022/03/30 00:17:54;;;;;;;31.77;18.13;;;;;;;13.30;41.57;99072.00;5116115;28;20040;-86
2022/03/30 00:20:24;;;;;;;31.67;17.55;;;;;;;13.22;41.82;99075.41;5115632;28;20047;-83
2022/03/30 00:22:52;;;;;;;30.85;17.42;;;;;;;13.21;42.15;99075.50;5115812;28;20108;-84
2022/03/30 00:25:22;;;;;;;29.85;16.95;;;;;;;13.14;41.95;99068.03;5115286;28;20075;-84
2022/03/30 00:27:50;;;;;;;28.52;15.75;;;;;;;13.05;42.44;99073.34;5115534;28;20039;-86
2022/03/30 00:30:21;;;;;;;29.45;16.52;;;;;;;13.04;42.43;99071.66;5097256;28;20079;-86
2022/03/30 00:32:50;;;;;;;25.48;15.32;;;;;;;12.95;42.86;99067.13;5115831;28;20078;-80
2022/03/30 00:35:18;;;;;;;25.80;14.85;;;;;;;13.01;42.53;99071.91;5115033;28;20040;-78
2022/03/30 00:37:46;;;;;;;28.55;16.02;;;;;;;12.97;42.70;99063.31;5114901;28;20420;-78
2022/03/30 00:40:16;;;;;;;25.10;15.02;;;;;;;12.93;42.67;99069.91;5115395;28;20048;-77
2022/03/30 00:42:47;;;;;;;24.63;15.80;;;;;;;12.92;42.72;99057.50;5115637;28;20450;-78
2022/03/30 00:45:17;;;;;;;26.58;15.75;;;;;;;12.86;42.86;99058.91;5115277;28;20044;-78
2022/03/30 00:47:46;;;;;;;25.05;14.88;;;;;;;12.92;42.69;99046.81;5115672;28;20378;-79
2022/03/30 00:50:17;;;;;;;26.15;14.77;;;;;;;12.92;42.80;99052.16;5115033;28;20092;-78
2022/03/30 00:52:46;;;;;;;27.63;13.90;;;;;;;12.98;42.45;99046.28;5115076;28;20393;-78
2022/03/30 00:55:16;;;;;;;24.52;14.43;;;;;;;12.88;42.95;99045.41;5114713;28;20048;-78
2022/03/30 00:57:48;;;;;;;27.38;14.35;;;;;;;12.80;43.06;99038.03;5115317;28;20470;-78
2022/03/30 01:00:17;;;;;;;23.30;14.35;;;;;;;12.76;43.25;99043.81;5114944;28;20050;-78
2022/03/30 01:02:47;;;;;;;29.45;15.35;;;;;;;12.65;43.50;99038.56;5114761;28;20069;-78
2022/03/30 01:05:16;;;;;;;24.17;15.27;;;;;;;12.69;43.47;99039.97;5115031;28;20043;-78
2022/03/30 01:07:45;;;;;;;23.58;14.05;;;;;;;12.58;43.98;99033.75;5115022;28;20044;-78
2022/03/30 01:10:15;;;;;;;26.50;15.07;;;;;;;12.50;44.04;99030.03;5114690;28;20051;-78
2022/03/30 01:12:44;;;;;;;24.17;14.13;;;;;;;12.44;44.28;99031.41;5114955;28;20050;-78
2022/03/30 01:15:14;;;;;;;27.52;14.70;;;;;;;12.31;44.59;99017.44;5114499;28;20075;-75
2022/03/30 01:17:42;;;;;;;22.70;13.60;;;;;;;12.29;44.79;99024.75;5114674;28;20036;-77
2022/03/30 01:20:12;;;;;;;25.27;13.15;;;;;;;12.31;44.78;99020.09;5114732;28;20092;-75
2022/03/30 01:22:42;;;;;;;21.52;13.68;;;;;;;12.25;44.76;99015.28;5114880;28;20050;-77
2022/03/30 01:25:11;;;;;;;25.10;14.13;;;;;;;12.28;44.64;99023.03;5114727;28;20079;-75
2022/03/30 01:27:39;;;;;;;21.77;14.13;;;;;;;12.19;44.90;99018.50;5114708;28;20047;-77
2022/03/30 01:32:56;;;;;;;22.48;13.35;;;;;;;12.07;45.46;99022.22;5114652;28;20035;-81
2022/03/30 01:35:24;;;;;;;21.30;12.65;;;;;;;12.04;45.38;99007.28;5114339;28;20496;-76
2022/03/30 01:37:54;;;;;;;21.15;13.98;;;;;;;11.96;45.63;99015.09;5114143;28;20093;-81
2022/03/30 01:40:23;;;;;;;20.73;12.85;;;;;;;11.98;45.56;99003.31;5114220;28;20519;-82
2022/03/30 01:42:51;;;;;;;21.08;12.85;;;;;;;11.92;45.81;98998.50;5114154;28;20054;-81
2022/03/30 01:45:19;;;;;;;27.23;13.57;;;;;;;11.91;45.98;98991.47;5113718;28;20071;-80
2022/03/30 01:47:52;;;;;;;21.17;13.32;;;;;;;11.96;45.72;98983.88;5114687;28;20043;-81
2022/03/30 01:50:21;;;;;;;;;;;;;;;11.91;46.24;98985.28;5113834;28;20036;-82
2022/03/30 01:52:50;;;;;;;18.48;12.40;;;;;;;11.94;45.83;98985.00;5114376;28;20446;-83
2022/03/30 01:55:20;;;;;;;23.33;12.93;;;;;;;11.87;46.36;98981.16;5114108;28;20052;-82
2022/03/30 01:57:48;;;;;;;19.67;12.00;;;;;;;11.77;46.62;98983.72;5113957;28;20074;-82
2022/03/30 02:00:19;;;;;;;23.90;12.75;;;;;;;11.71;46.98;98981.59;5095065;28;20051;-81
2022/03/30 02:02:48;;;;;;;23.23;12.68;;;;;;;11.82;46.42;98984.22;5095947;28;20061;-82
2022/03/30 02:05:18;;;;;;;22.25;13.43;;;;;;;11.70;46.90;98977.22;5095297;28;20040;-80
2022/03/30 02:07:48;;;;;;;22.48;12.40;;;;;;;11.68;47.06;98981.88;5113943;28;20039;-80
2022/03/30 02:10:17;;;;;;;25.33;12.52;;;;;;;11.82;46.54;98981.56;5114095;28;20127;-81
2022/03/30 02:12:47;;;;;;;21.85;12.38;;;;;;;11.79;46.95;98981.78;5096806;28;20044;-80
2022/03/30 02:15:15;;;;;;;20.75;12.88;;;;;;;11.78;47.11;98980.09;5115328;28;20039;-76
2022/03/30 02:17:44;;;;;;;20.75;12.73;;;;;;;11.64;47.59;98988.44;5115899;28;20043;-81
2022/03/30 02:20:12;;;;;;;23.23;12.38;;;;;;;11.46;48.19;98980.97;5115249;28;20069;-81
2022/03/30 02:22:41;;;;;;;22.25;12.30;;;;;;;11.42;48.62;98979.56;5116326;28;20071;-81
2022/03/30 02:25:10;;;;;;;22.33;12.35;;;;;;;11.45;48.28;98978.44;5114864;28;20055;-79
2022/03/30 02:27:39;;;;;;;20.70;12.23;;;;;;;11.37;48.84;98959.53;5114284;28;20039;-81
2022/03/30 02:30:10;;;;;;;20.85;12.63;;;;;;;11.38;49.00;98980.78;5116558;28;20459;-81
2022/03/30 02:32:40;;;;;;;23.83;12.20;;;;;;;11.40;49.11;98976.19;5114571;28;20067;-81
2022/03/30 02:35:09;;;;;;;22.23;12.38;;;;;;;11.33;49.27;98966.97;5115394;28;20047;-81
2022/03/30 02:37:38;;;;;;;23.05;11.90;;;;;;;11.23;49.84;98967.88;5113992;28;20036;-81
2022/03/30 02:40:07;;;;;;;18.75;11.35;;;;;;;11.27;49.76;98980.81;5115586;28;20098;-81
2022/03/30 02:42:35;;;;;;;24.27;12.07;;;;;;;11.23;49.84;98979.41;5115558;28;20523;-80
2022/03/30 02:45:05;;;;;;;18.40;11.05;;;;;;;11.14;50.36;98985.50;5113939;28;20060;-76
2022/03/30 02:50:20;;;;;;;21.52;11.55;;;;;;;11.22;50.65;98982.19;5113336;28;20097;-77
2022/03/30 02:52:48;;;;;;;21.63;10.98;;;;;;;11.03;51.23;98975.72;5113213;28;20044;-80
2022/03/30 02:55:16;;;;;;;16.25;11.30;;;;;;;11.18;51.05;98976.25;5113296;28;20071;-83
2022/03/30 02:57:46;;;;;;;20.80;11.73;;;;;;;11.04;51.49;98977.41;5113224;28;20122;-83
2022/03/30 03:00:15;;;;;;;21.55;11.32;;;;;;;11.02;51.71;98975.84;5113078;28;20039;-83
2022/03/30 03:02:45;;;;;;;18.02;10.95;;;;;;;11.02;51.81;98976.69;5117065;28;20035;-82
2022/03/30 03:05:14;;;;;;;18.67;11.77;;;;;;;11.03;51.88;98972.19;5117506;28;20078;-82
2022/03/30 03:07:42;;;;;;;18.73;11.20;;;;;;;11.06;51.84;98972.78;5117090;28;20480;-85
2022/03/30 03:10:10;;;;;;;19.83;10.73;;;;;;;11.02;51.98;98971.34;5117017;28;20040;-83
2022/03/30 03:12:39;;;;;;;18.83;10.73;;;;;;;10.92;52.28;98969.56;5116980;28;20039;-78
2022/03/30 03:15:08;;;;;;;16.25;9.70;;;;;;;11.01;52.40;98980.31;5117295;28;20069;-78
2022/03/30 03:17:36;;;;;;;16.92;10.13;;;;;;;10.96;52.03;98976.31;5116901;28;20040;-79
2022/03/30 03:20:07;;;;;;;19.10;10.77;;;;;;;10.85;52.74;98979.88;5117002;28;20122;-78
2022/03/30 03:22:35;;;;;;;18.17;10.60;;;;;;;10.84;52.97;98984.38;5116633;28;20515;-81
2022/03/30 03:25:09;;;;;;;18.25;10.60;;;;;;;10.77;53.26;98983.16;5117191;28;20187;-81
2022/03/30 03:27:38;;;;;;;15.40;10.57;;;;;;;10.75;53.36;98976.25;5116514;28;20036;-80
2022/03/30 03:30:08;;;;;;;25.13;10.88;;;;;;;10.67;53.70;98981.38;5116865;28;20046;-78
2022/03/30 03:32:38;;;;;;;17.27;9.95;;;;;;;10.63;53.85;98979.94;5116634;28;20528;-78
2022/03/30 03:35:09;;;;;;;17.13;10.35;;;;;;;10.66;54.08;98985.84;5117036;28;20035;-78
2022/03/30 03:37:38;;;;;;;21.50;10.77;;;;;;;10.66;54.16;98983.19;5116587;28;20058;-78
2022/03/30 03:40:08;;;;;;;19.63;10.38;;;;;;;10.61;54.46;98982.69;5116635;28;20473;-77
2022/03/30 03:42:38;;;;;;;18.77;10.15;;;;;;;10.64;54.52;98976.28;5116257;28;20401;-77
2022/03/30 03:45:07;;;;;;;21.77;10.30;;;;;;;10.58;54.77;98982.94;5116602;28;20052;-78
2022/03/30 03:47:36;;;;;;;19.52;9.95;;;;;;;10.62;55.00;98981.75;5116008;28;20050;-78
2022/03/30 03:50:06;;;;;;;16.92;10.23;;;;;;;10.68;54.73;98978.56;5116580;28;20042;-79
2022/03/30 03:52:36;;;;;;;19.58;10.45;;;;;;;10.58;54.89;98977.63;5116254;28;20442;-79
2022/03/30 03:55:05;;;;;;;20.98;9.95;;;;;;;10.57;55.24;98981.25;5116425;28;20063;-85
2022/03/30 03:57:35;;;;;;;21.38;10.05;;;;;;;10.47;55.39;98980.28;5116054;28;20047;-85
2022/03/30 04:00:05;;;;;;;22.95;10.57;;;;;;;10.45;55.58;98982.25;5116226;28;20036;-83
2022/03/30 04:02:33;;;;;;;23.48;10.98;;;;;;;10.40;56.07;98979.91;5116349;28;20044;-83
2022/03/30 04:05:02;;;;;;;23.60;10.93;;;;;;;10.38;56.07;98983.69;5115968;28;20054;-84
2022/03/30 04:07:32;;;;;;;17.67;10.30;;;;;;;10.31;56.51;98981.50;5115931;28;20126;-83
2022/03/30 04:10:02;;;;;;;19.92;10.77;;;;;;;10.42;56.11;98982.47;5116235;28;20032;-84
2022/03/30 04:12:30;;;;;;;21.15;11.25;;;;;;;10.35;56.24;98986.59;5115498;28;20040;-85
2022/03/30 04:14:59;;;;;;;17.77;10.88;;;;;;;10.37;56.45;98984.66;5115820;28;20048;-84
2022/03/30 04:17:27;;;;;;;25.75;12.82;;;;;;;10.40;56.36;98979.06;5116124;28;20039;-83
2022/03/30 04:19:55;;;;;;;26.02;12.15;;;;;;;10.36;56.43;98983.81;5098240;28;20560;-84
2022/03/30 04:22:24;;;;;;;25.65;12.07;;;;;;;10.29;56.78;98978.13;5115786;28;20039;-82
2022/03/30 04:24:52;;;;;;;28.42;12.02;;;;;;;10.30;56.89;98984.28;5115599;28;20436;-84
2022/03/30 04:27:22;;;;;;;26.77;13.07;;;;;;;10.29;56.98;98983.44;5115835;28;20036;-84
2022/03/30 04:29:50;;;;;;;23.23;11.10;;;;;;;10.37;56.66;98984.66;5115638;28;20092;-81
2022/03/30 04:32:19;;;;;;;22.23;11.52;;;;;;;10.48;56.18;98987.31;5115653;28;20040;-81
2022/03/30 04:34:47;;;;;;;22.27;11.15;;;;;;;10.29;57.23;98990.59;5115457;28;20526;-81
2022/03/30 04:37:18;;;;;;;28.42;12.30;;;;;;;10.23;57.58;98991.94;5115516;28;20040;-81
2022/03/30 04:39:46;;;;;;;20.92;11.40;;;;;;;10.44;57.15;98997.38;5115107;28;20042;-81
2022/03/30 04:42:15;;;;;;;24.23;10.98;;;;;;;10.55;56.75;98988.53;5115651;28;20039;-81
2022/03/30 04:44:44;;;;;;;26.00;12.65;;;;;;;10.51;57.17;98997.72;5115121;28;20040;-81
2022/03/30 04:47:12;;;;;;;27.92;13.43;;;;;;;10.44;57.62;98996.53;5115332;28;20092;-81
2022/03/30 04:49:41;;;;;;;21.65;12.30;;;;;;;10.30;58.30;98995.78;5114726;28;20481;-84
2022/03/30 04:52:10;;;;;;;23.40;12.10;;;;;;;10.28;58.81;99004.88;5115507;28;20491;-80
2022/03/30 04:54:39;;;;;;;24.48;11.38;;;;;;;10.31;58.71;99002.81;5115065;28;20457;-79
2022/03/30 04:57:07;;;;;;;25.60;11.60;;;;;;;10.31;59.03;99005.50;5115329;28;20048;-79
2022/03/30 04:59:35;;;;;;;20.23;11.45;;;;;;;10.37;58.86;98998.84;5114401;28;20043;-78
2022/03/30 05:02:05;;;;;;;22.10;11.13;;;;;;;10.36;59.14;99004.28;5115110;28;20036;-81
2022/03/30 05:04:34;;;;;;;18.35;10.85;;;;;;;10.32;59.29;99009.00;5114321;28;20043;-79
2022/03/30 05:07:02;;;;;;;19.60;11.20;;;;;;;10.30;59.58;99014.44;5114981;28;20044;-78
2022/03/30 05:09:31;;;;;;;20.08;10.95;;;;;;;10.41;59.28;99015.44;5114632;28;20044;-77
2022/03/30 05:11:59;;;;;;;23.58;10.77;;;;;;;10.42;59.17;99018.00;5114956;28;20043;-78
2022/03/30 05:14:27;;;;;;;19.40;10.55;;;;;;;10.46;59.10;99023.91;5114789;28;20064;-78
2022/03/30 05:16:56;;;;;;;22.75;11.07;;;;;;;10.51;58.65;99025.22;5114738;28;20048;-78
2022/03/30 05:19:25;;;;;;;19.67;11.40;;;;;;;10.54;58.89;99032.16;5114483;28;20139;-75
2022/03/30 05:21:54;;;;;;;19.67;11.35;;;;;;;10.46;59.13;99037.25;5114267;28;20518;-77
2022/03/30 05:24:22;;;;;;;23.17;11.82;;;;;;;10.47;59.37;99038.94;5113785;28;20056;-77
2022/03/30 05:26:50;;;;;;;23.05;11.30;;;;;;;10.54;59.08;99034.84;5113622;28;20045;-78
2022/03/30 05:29:19;;;;;;;20.75;11.70;;;;;;;10.53;59.16;99035.81;5096225;28;20051;-78
2022/03/30 05:31:47;;;;;;;20.77;11.35;;;;;;;10.55;59.02;99033.84;5114013;28;20036;-76
2022/03/30 05:34:37;;;;;;;22.98;11.90;;;;;;;10.59;59.03;99038.81;5114961;28;20061;-75
2022/03/30 05:37:05;;;;;;;25.48;12.75;;;;;;;10.70;58.92;99040.63;5115812;28;20086;-74
2022/03/30 05:39:35;;;;;;;22.17;12.40;;;;;;;10.83;58.17;99036.03;5116193;28;20040;-75
2022/03/30 05:42:04;;;;;;;23.52;12.30;;;;;;;10.86;58.28;99041.09;5116953;28;20050;-82
2022/03/30 05:44:33;;;;;;;22.40;10.85;;;;;;;10.90;57.86;99028.34;5116820;28;20047;-77
2022/03/30 05:47:01;;;;;;;20.75;11.95;;;;;;;11.03;57.89;99038.91;5116266;28;20046;-78
2022/03/30 05:49:30;;;;;;;21.83;12.50;;;;;;;11.14;57.26;99038.88;5115064;28;20043;-74
2022/03/30 05:52:02;;;;;;;26.88;12.27;;;;;;;11.23;57.00;99038.13;5116235;28;20431;-78
2022/03/30 05:54:33;;;;;;;31.30;12.88;;;;;;;11.38;56.69;99039.50;5116544;28;20350;-78
2022/03/30 05:57:02;;;;;;;26.98;12.65;;;;;;;11.56;55.85;99037.13;5116372;28;20123;-77
2022/03/30 05:59:31;;;;;;;26.48;14.00;;;;;;;11.58;56.02;99042.34;5115900;28;20074;-77
2022/03/30 06:02:00;;;;;;;20.17;12.80;;;;;;;11.62;55.59;99022.44;5116209;28;20447;-77
2022/03/30 06:04:29;;;;;;;24.30;13.18;;;;;;;11.70;55.45;99022.66;5116871;28;20050;-77
2022/03/30 06:06:59;;;;;;;20.50;12.70;;;;;;;11.71;55.58;99025.19;5116576;28;20063;-77
2022/03/30 06:09:28;;;;;;;24.90;12.15;;;;;;;11.82;55.44;99026.97;5117076;28;20044;-77
2022/03/30 06:12:09;;;;;;;21.38;12.55;;;;;;;11.89;55.11;99025.50;5115911;28;20054;-77
2022/03/30 06:14:38;;;;;;;24.90;13.00;;;;;;;12.12;54.46;99028.00;5115805;28;20469;-76
2022/03/30 06:17:07;;;;;;;26.48;13.70;;;;;;;12.22;54.13;99027.09;5115665;28;20477;-76
2022/03/30 06:19:36;;;;;;;25.75;13.80;;;;;;;12.23;54.12;99027.94;5114830;28;20044;-77
2022/03/30 06:22:09;;;;;;;29.58;13.80;;;;;;;12.25;53.98;99026.81;5115526;28;20390;-81
2022/03/30 06:24:39;;;;;;;27.38;13.02;;;;;;;12.37;53.63;99029.44;5116694;28;20468;-77
2022/03/30 06:27:09;;;;;;;28.00;13.38;;;;;;;12.46;53.32;99028.63;5102308;28;20043;-81
2022/03/30 06:29:38;;;;;;;22.42;12.95;;;;;;;12.55;53.16;99019.81;5115976;28;20393;-77
2022/03/30 06:32:08;;;;;;;26.85;13.40;;;;;;;12.73;52.38;99026.19;5115911;28;20047;-79
2022/03/30 06:34:38;;;;;;;22.05;13.07;;;;;;;12.80;52.46;99026.50;5116038;28;20060;-76
2022/03/30 06:37:08;;;;;;;27.17;13.95;;;;;;;12.90;51.81;99035.41;5116632;28;20365;-77
2022/03/30 06:39:37;;;;;;;27.55;13.75;;;;;;;12.99;51.94;99036.41;5116434;28;20040;-76
2022/03/30 06:42:10;;;;;;;28.65;14.38;;;;;;;13.01;51.84;99040.63;5115530;28;20092;-77
2022/03/30 06:44:39;;;;;;;31.88;13.95;;;;;;;13.17;51.23;99037.44;5115459;28;20120;-77
2022/03/30 06:47:10;;;;;;;34.30;16.42;;;;;;;13.18;50.93;99031.94;5115650;28;20095;-78
2022/03/30 06:49:39;;;;;;;25.67;13.48;;;;;;;13.30;50.59;99039.88;5097357;28;20059;-78
2022/03/30 06:52:10;;;;;;;30.00;14.63;;;;;;;13.55;50.10;99054.56;5115948;28;20051;-78
2022/03/30 06:54:38;;;;;;;27.15;14.63;;;;;;;13.73;49.80;99048.38;5115515;28;20043;-77
2022/03/30 06:57:07;;;;;;;30.00;14.40;;;;;;;13.91;48.82;99040.47;5115789;28;20092;-78
2022/03/30 06:59:36;;;;;;;23.80;14.27;;;;;;;14.01;48.62;99041.31;5114901;28;20044;-74
2022/03/30 07:02:04;;;;;;;28.70;15.48;;;;;;;13.94;48.04;99044.69;5113596;28;20400;-74
2022/03/30 07:04:35;;;;;;;28.90;14.15;;;;;;;14.02;47.58;99047.50;5114688;28;20051;-76
2022/03/30 07:12:37;;;;;;;29.27;15.50;;;;;;;13.84;47.28;99028.63;5114194;28;20109;-75
2022/03/30 07:15:06;;;;;;;23.65;16.20;;;;;;;13.79;47.57;99033.53;5095841;28;20075;-75
2022/03/30 07:17:43;;;;;;;31.10;15.35;;;;;;;13.78;48.31;99039.91;5114553;28;20410;-75
2022/03/30 07:20:11;;;;;;;29.80;15.82;;;;;;;13.90;47.62;99037.94;5114361;28;20042;-75
2022/03/30 07:22:40;;;;;;;26.85;15.10;;;;;;;14.02;47.55;99031.44;5095058;28;20050;-76
2022/03/30 07:25:13;;;;;;;24.50;14.23;;;;;;;14.01;47.01;99037.78;5113266;28;20056;-75
2022/03/30 07:27:43;;;;;;;27.75;15.57;;;;;;;14.14;47.28;99037.47;5095472;28;20078;-75
2022/03/30 07:30:13;;;;;;;28.25;15.73;;;;;;;14.25;47.12;99037.28;5114304;28;20392;-75
2022/03/30 07:32:45;;;;;;;30.33;15.48;;;;;;;14.32;46.47;99030.38;5115017;28;20051;-76
2022/03/30 07:35:16;;;;;;;29.85;16.17;;;;;;;14.43;46.16;99035.56;5116625;28;20093;-75
2022/03/30 07:37:46;;;;;;;29.08;15.50;;;;;;;14.41;46.21;99026.81;5114840;28;20118;-75
2022/03/30 07:40:18;;;;;;;26.75;15.43;;;;;;;14.37;46.35;99032.59;5096672;28;20073;-75
2022/03/30 07:42:49;;;;;;;24.45;14.63;;;;;;;14.37;46.49;99027.22;5114212;28;20503;-75
2022/03/30 07:45:18;;;;;;;28.15;15.02;;;;;;;14.51;46.41;99024.13;5114521;28;20051;-75
2022/03/30 07:47:47;;;;;;;27.23;14.80;;;;;;;14.62;46.06;99029.31;5114334;28;20069;-74
2022/03/30 07:50:16;;;;;;;26.67;14.70;;;;;;;14.57;45.86;99026.19;5118310;28;20073;-75
2022/03/30 07:52:45;;;;;;;22.92;14.25;;;;;;;14.58;46.19;99033.28;5117846;28;20044;-75
2022/03/30 07:55:15;;;;;;;37.38;15.63;;;;;;;14.68;46.13;99034.09;5118257;28;20039;-75
2022/03/30 07:57:44;;;;;;;24.90;15.45;;;;;;;14.85;45.20;99038.66;5117749;28;20051;-75
2022/03/30 08:00:16;;;;;;;29.45;15.43;;;;;;;15.06;44.64;99042.94;5117892;28;20052;-75
2022/03/30 08:02:45;;;;;;;26.98;15.93;;;;;;;15.27;44.26;99040.84;5117194;28;20378;-76
2022/03/30 08:05:15;;;;;;;27.50;15.10;;;;;;;15.25;44.19;99040.16;5117571;28;20104;-75
2022/03/30 08:07:46;;;;;;;32.20;16.13;;;;;;;15.31;44.11;99036.84;5117875;28;20050;-76
2022/03/30 08:10:17;;;;;;;26.70;15.40;;;;;;;15.42;44.03;99043.84;5118079;28;20042;-75
2022/03/30 08:12:47;;;;;;;31.80;16.40;;;;;;;15.46;44.02;99054.13;5116848;28;20066;-75
2022/03/30 08:15:16;;;;;;;33.03;15.95;;;;;;;15.58;43.52;99051.22;5117628;28;20056;-75
2022/03/30 08:17:45;;;;;;;33.00;15.80;;;;;;;15.54;43.57;99047.13;5118052;28;20426;-76
2022/03/30 08:22:25;;;;;;;32.33;15.73;;;;;;;15.60;43.60;99044.72;5117367;28;20048;-75
2022/03/30 08:23:02;;;;;;;28.70;15.77;;;;;;;15.67;42.81;99047.66;5117064;28;20592;-75
2022/03/30 08:25:33;;;;;;;27.23;15.88;;;;;;;15.58;43.50;99045.84;5117199;28;20085;-74
2022/03/30 08:28:02;;;;;;;25.48;15.55;;;;;;;15.58;43.14;99053.91;5116744;28;20043;-74
2022/03/30 08:30:31;;;;;;;31.80;15.77;;;;;;;15.51;43.37;99050.13;5117503;28;20052;-75
2022/03/30 08:33:01;;;;;;;30.05;16.60;;;;;;;15.67;43.02;99047.66;5117045;28;20050;-75
2022/03/30 08:35:32;;;;;;;28.10;17.27;;;;;;;15.81;42.88;99048.94;5117431;28;20048;-75
2022/03/30 08:38:01;;;;;;;32.33;16.25;;;;;;;16.09;42.49;99052.38;5116103;28;20093;-75
2022/03/30 08:40:30;;;;;;;23.85;15.43;;;;;;;16.23;42.02;99051.81;5116830;28;20054;-75
2022/03/30 08:43:00;;;;;;;26.23;16.05;;;;;;;16.34;41.98;99056.09;5118030;28;20433;-75
2022/03/30 08:45:28;;;;;;;24.38;14.70;;;;;;;16.31;41.86;99052.72;5118578;28;20050;-75
2022/03/30 08:47:57;;;;;;;27.92;15.90;;;;;;;16.40;41.66;99066.19;5116259;28;20111;-76
2022/03/30 08:50:25;;;;;;;27.80;15.15;;;;;;;16.47;41.42;99056.50;5116810;28;20071;-75
2022/03/30 08:52:55;;;;;;;29.17;14.80;;;;;;;16.60;41.67;99056.94;5116544;28;20134;-76
2022/03/30 08:55:24;;;;;;;28.25;14.77;;;;;;;16.61;41.50;99061.31;5115899;28;20492;-75
2022/03/30 08:57:53;;;;;;;26.15;14.73;;;;;;;16.51;41.67;99056.03;5116045;28;20090;-75
2022/03/30 09:00:25;;;;;;;27.40;14.05;;;;;;;16.53;41.59;99062.09;5115799;28;20046;-74
2022/03/30 09:03:00;;;;;;;27.05;14.43;;;;;;;16.62;41.30;99057.63;5115343;28;20066;-75
2022/03/30 09:05:31;;;;;;;28.85;14.60;;;;;;;16.60;41.39;99057.78;5098616;28;20058;-74
2022/03/30 09:08:10;;;;;;;26.08;16.02;;;;;;;16.55;41.27;99053.88;5116135;28;20039;-75
2022/03/30 09:10:39;;;;;;;31.02;14.98;;;;;;;16.52;41.44;99049.66;5116664;28;20050;-75
2022/03/30 09:13:14;;;;;;;34.60;15.77;;;;;;;16.53;41.30;99051.34;5116882;28;20093;-75
2022/03/30 09:15:46;;;;;;;29.70;14.50;;;;;;;16.55;41.25;99049.31;5116677;28;20043;-75
2022/03/30 09:18:15;;;;;;;24.45;14.63;;;;;;;16.55;41.18;99048.47;5116448;28;20043;-75
2022/03/30 09:20:46;;;;;;;28.50;15.32;;;;;;;16.64;41.37;99044.00;5117142;28;20101;-75
2022/03/30 09:23:21;;;;;;;30.98;15.43;;;;;;;16.57;41.26;99031.16;5117145;28;20118;-75
2022/03/30 09:25:52;;;;;;;28.02;14.20;;;;;;;16.63;41.24;99039.63;5116964;28;20176;-75
2022/03/30 09:28:22;;;;;;;23.90;14.50;;;;;;;16.62;41.33;99038.78;5116718;28;20074;-75
2022/03/30 09:30:53;;;;;;;25.77;14.40;;;;;;;16.46;41.51;99031.44;5116899;28;20036;-75
2022/03/30 09:33:24;;;;;;;25.70;15.00;;;;;;;16.58;41.92;99032.84;5116754;28;20046;-75
2022/03/30 09:35:53;;;;;;;30.65;14.73;;;;;;;16.64;41.42;99027.84;5115591;28;20048;-75
2022/03/30 09:38:25;;;;;;;31.17;15.13;;;;;;;16.80;41.18;99030.66;5116142;28;20074;-74
2022/03/30 09:40:56;;;;;;;22.88;15.07;;;;;;;16.77;41.28;99021.03;5116438;28;20043;-74
2022/03/30 09:43:27;;;;;;;29.58;14.68;;;;;;;16.81;41.18;99008.94;5116575;28;20076;-74
2022/03/30 09:46:08;;;;;;;28.95;14.88;;;;;;;17.00;40.28;99021.31;5116064;28;20052;-74
2022/03/30 09:48:40;;;;;;;28.20;14.50;;;;;;;17.02;40.11;99021.13;5115941;28;20106;-74
2022/03/30 09:51:09;;;;;;;27.23;15.45;;;;;;;17.16;39.91;99004.31;5115737;28;20059;-74
2022/03/30 09:53:38;;;;;;;21.30;14.57;;;;;;;17.20;40.01;99005.69;5118058;28;20134;-75
2022/03/30 09:56:09;;;;;;;30.90;15.88;;;;;;;17.14;40.42;99007.19;5116469;28;20071;-75
2022/03/30 09:58:39;;;;;;;27.67;14.95;;;;;;;17.12;40.24;99001.13;5115399;28;20038;-74
2022/03/30 10:01:19;;;;;;;27.35;15.43;;;;;;;17.08;39.66;99004.28;5115300;28;20035;-76
2022/03/30 10:03:51;;;;;;;27.13;16.45;;;;;;;17.05;40.05;99000.09;5115320;28;20582;-76
2022/03/30 10:06:21;;;;;;;27.83;15.27;;;;;;;17.16;40.34;98994.41;5115150;28;20044;-76
2022/03/30 10:08:52;;;;;;;30.45;15.73;;;;;;;17.33;39.98;98995.28;5114979;28;20469;-76
2022/03/30 10:11:21;;;;;;;24.85;15.57;;;;;;;17.42;39.51;98988.91;5114048;28;20075;-76
2022/03/30 10:13:51;;;;;;;28.30;15.25;;;;;;;17.41;39.66;98986.38;5114894;28;20046;-76
2022/03/30 10:16:43;;;;;;;25.17;15.15;;;;;;;17.39;39.89;98983.00;5114562;28;20476;-76
2022/03/30 10:19:12;;;;;;;29.42;15.65;;;;;;;17.36;39.84;98988.69;5114722;28;20089;-76
2022/03/30 10:21:49;;;;;;;28.38;15.80;;;;;;;17.49;39.62;98990.94;5114812;28;20047;-75
2022/03/30 10:24:43;;;;;;;26.83;14.70;;;;;;;17.60;39.78;98990.59;5114190;28;20142;-76
2022/03/30 10:27:17;;;;;;;27.08;15.18;;;;;;;17.58;39.54;98988.06;5114490;28;20043;-76
2022/03/30 10:29:54;;;;;;;31.42;14.95;;;;;;;17.67;39.70;98972.75;5114574;28;20122;-76
2022/03/30 10:32:24;;;;;;;26.52;14.90;;;;;;;17.87;39.44;98974.13;5114474;28;20047;-76
2022/03/30 10:35:06;;;;;;;27.17;14.68;;;;;;;17.87;39.22;98975.97;5114646;28;20131;-77
2022/03/30 10:37:38;;;;;;;26.98;15.30;;;;;;;17.68;39.99;98977.97;5114914;28;20048;-76
2022/03/30 10:40:25;;;;;;;26.48;15.02;;;;;;;17.73;39.75;98961.31;5114276;28;20069;-76
2022/03/30 10:42:59;;;;;;;26.98;14.45;;;;;;;17.81;39.72;98963.16;5114255;28;20383;-77
2022/03/30 10:45:33;;;;;;;25.50;13.70;;;;;;;17.97;39.60;98960.47;5114208;28;20043;-77
2022/03/30 10:48:16;;;;;;;26.65;14.18;;;;;;;17.88;39.88;98956.09;5114429;28;20063;-76
2022/03/30 10:50:46;;;;;;;25.77;13.90;;;;;;;18.05;39.56;98952.34;5114807;28;20048;-76
2022/03/30 10:53:42;;;;;;;25.70;13.50;;;;;;;18.15;39.64;98958.41;5114129;28;20063;-75
2022/03/30 10:56:32;;;;;;;21.98;13.00;;;;;;;18.15;39.90;98949.47;5115411;28;20422;-75
2022/03/30 10:59:21;;;;;;;24.58;12.77;;;;;;;18.20;39.55;98945.22;5114682;28;20052;-76
2022/03/30 11:01:50;;;;;;;24.73;12.88;;;;;;;18.25;39.22;98939.31;5110098;28;20063;-75
2022/03/30 11:04:27;;;;;;;23.02;12.93;;;;;;;18.23;39.18;98942.16;5114851;28;20047;-76
2022/03/30 11:07:40;;;;;;;29.25;13.73;;;;;;;17.88;39.74;98932.66;5114396;28;20044;-76
2022/03/30 11:10:24;;;;;;;26.50;13.00;;;;;;;17.73;40.39;98943.25;5114101;28;20040;-74
2022/03/30 11:12:56;;;;;;;;;;;;;;;17.90;39.83;98937.88;5114574;28;20044;-75
2022/03/30 11:15:25;;;;;;;21.85;11.73;;;;;;;17.74;40.68;98931.47;5114540;28;19920;-75
2022/03/30 11:17:55;;;;;;;20.77;12.70;;;;;;;18.01;40.16;98934.81;5114794;28;20097;-75
2022/03/30 11:20:25;;;;;;;20.40;11.60;;;;;;;18.08;38.98;98930.41;5114610;28;20047;-75
2022/03/30 11:22:53;;;;;;;20.17;12.15;;;;;;;17.99;38.53;98926.88;5115005;28;20039;-75
2022/03/30 11:25:24;;;;;;;23.27;12.27;;;;;;;17.82;39.06;98924.38;5117572;28;20051;-75
2022/03/30 11:28:13;;;;;;;20.55;11.20;;;;;;;18.02;39.01;98921.13;5118215;28;20039;-75
2022/03/30 11:30:43;;;;;;;24.23;12.35;;;;;;;18.10;38.86;98914.03;5118235;28;20435;-76
2022/03/30 11:33:22;;;;;;;23.08;11.45;;;;;;;17.93;38.77;98915.94;5118435;28;20498;-76
2022/03/30 11:35:52;;;;;;;20.77;12.02;;;;;;;18.09;38.97;98905.13;5118063;28;20040;-76
2022/03/30 11:38:25;;;;;;;21.92;11.13;;;;;;;18.17;38.61;98907.78;5118528;28;20051;-75
2022/03/30 11:41:01;;;;;;;21.77;11.10;;;;;;;18.34;39.14;98903.19;5118510;28;20043;-76
2022/03/30 11:43:32;;;;;;;22.23;11.32;;;;;;;18.31;38.92;98898.97;5118517;28;20099;-74